Portada
METAR-TAF:

METAR-TAF

Aeroports :

Djibouti, Djibouti

latitud: 11-33N, longitud: 043-10E, altitud: 49 m

Observació

L'informe es va fer fa 42 minuts, a les 07:00 UTC
Vent 7 kt del Est
Temperatura 31°C
Humitat 63%
Pressió 1017 hPa
Visibilitat 10 km o més
Escasses núvols a una alçada de 2300 ft

METAR: HDAM 180700Z 09007KT 9999 FEW023 31/23 Q1017

Hora: 10:42 (07:42 UTC)

Pronòstic

L'informe es va fer fa 2 hores i 42 minuts, a les 05:00 UTC
Pronòstic vàlid del 18 a les 06 UTC al 19 a les 06 UTC
Vent 12 kt del Est
Visibilitat 10 km o més
Núvols disperses a una alçada de 2300 ft
Evolucionant progressivament
l' 18 a les 15 UTC al 18 a les 18 UTC
Vent 5 kt amb direcció variable
Escasses núvols a una alçada de 2000 ft
Evolucionant progressivament
l' 19 a les 00 UTC al 19 a les 06 UTC
Vent kt del Nord
Núvols disperses a una alçada de 2000 ft

TAF: HDAM 180500Z 1806/1906 08012KT 9999 SCT023 BECMG 1815/1818 VRB05KT FEW020 BECMG 1900/1906 00000KT SCT020

Observacions i pronòstics meteorològics de més de 4000 aeroports (METAR i TAF).

Les estacions disponibles són els punts grocs i vermells al mapa.

Posi el ratolí al punt desitjat per veure el nom de l'estació.

Feu clic per veure les observacions i els pronòstics meteorològics.

Per canviar el mapa: feu clic els botons verds amb una creu de color negre per apropar; al botó verd amb un guió per allunyar la imatge; o en les fletxes verdes per a mapes adjacents.


METAR-TAF: